createdAt,value
2022-08-23T00:02:02.652Z,93.00
2022-08-23T00:04:53.309Z,93.87
2022-08-23T00:07:29.822Z,93.29
2022-08-23T00:09:57.096Z,93.37
2022-08-23T00:12:25.994Z,93.45
2022-08-23T00:14:55.220Z,94.29
2022-08-23T00:17:33.576Z,93.77
2022-08-23T00:20:07.788Z,92.99
2022-08-23T00:22:36.594Z,93.72
2022-08-23T00:25:06.890Z,93.61
2022-08-23T00:27:34.856Z,93.06
2022-08-23T00:30:06.443Z,92.94
2022-08-23T00:32:38.206Z,92.82
2022-08-23T00:35:09.479Z,92.41
2022-08-23T00:37:37.910Z,92.42
2022-08-23T00:40:11.503Z,92.31
2022-08-23T00:43:11.652Z,92.81
2022-08-23T00:46:07.183Z,92.68
2022-08-23T00:48:37.027Z,93.58
2022-08-23T00:51:27.593Z,93.33
2022-08-23T00:53:59.664Z,93.62
2022-08-23T00:56:30.012Z,93.17
2022-08-23T00:58:58.141Z,93.92
2022-08-23T01:01:26.864Z,92.60
2022-08-23T01:04:04.758Z,93.63
2022-08-23T01:06:39.634Z,93.14
2022-08-23T01:09:15.456Z,93.17
2022-08-23T01:12:06.434Z,93.08
2022-08-23T01:14:56.031Z,93.86
2022-08-23T01:17:46.005Z,93.36
2022-08-23T01:20:21.697Z,93.66
2022-08-23T01:23:05.037Z,93.86
2022-08-23T01:25:34.163Z,94.29
2022-08-23T01:28:01.552Z,94.24
2022-08-23T01:30:32.355Z,94.11
2022-08-23T01:33:04.249Z,94.20
2022-08-23T01:35:41.746Z,94.01
2022-08-23T01:38:11.729Z,93.59
2022-08-23T01:40:42.177Z,93.72
2022-08-23T01:43:10.377Z,94.11
2022-08-23T01:45:37.834Z,93.79
2022-08-23T01:48:08.581Z,94.05
2022-08-23T01:50:39.022Z,93.53
2022-08-23T01:53:07.582Z,94.09
2022-08-23T01:55:36.338Z,93.68
2022-08-23T01:58:05.645Z,93.58
2022-08-23T02:00:40.920Z,93.93
2022-08-23T02:03:09.686Z,94.60
2022-08-23T02:05:37.757Z,94.47
2022-08-23T02:08:25.592Z,94.16
2022-08-23T02:10:54.683Z,94.53
2022-08-23T02:13:22.277Z,94.74
2022-08-23T02:15:51.550Z,95.02
2022-08-23T02:18:20.736Z,94.95
2022-08-23T02:20:51.203Z,94.64
2022-08-23T02:23:20.274Z,95.05
2022-08-23T02:25:48.003Z,95.30
2022-08-23T02:28:15.648Z,95.42
2022-08-23T02:30:45.785Z,95.44
2022-08-23T02:33:14.294Z,95.05
2022-08-23T02:35:44.181Z,95.18
2022-08-23T02:38:12.741Z,95.31
2022-08-23T02:40:41.995Z,95.06
2022-08-23T02:43:10.263Z,94.90
2022-08-23T02:45:38.506Z,94.62
2022-08-23T02:48:08.008Z,94.36
2022-08-23T02:50:42.417Z,94.41
2022-08-23T02:53:09.857Z,94.51
2022-08-23T02:55:38.300Z,94.55
2022-08-23T02:58:05.573Z,94.79
2022-08-23T03:00:32.820Z,94.37
2022-08-23T03:03:00.170Z,95.07
2022-08-23T03:05:27.372Z,95.01
2022-08-23T03:07:54.580Z,94.98
2022-08-23T03:10:22.579Z,95.02
2022-08-23T03:12:54.861Z,95.33
2022-08-23T03:15:23.134Z,94.76
2022-08-23T03:17:53.465Z,94.91
2022-08-23T03:20:22.020Z,94.48
2022-08-23T03:22:54.748Z,94.27
2022-08-23T03:25:23.819Z,94.64
2022-08-23T03:28:08.608Z,94.26
2022-08-23T03:30:38.187Z,93.91
2022-08-23T03:33:06.003Z,93.56
2022-08-23T03:35:33.289Z,93.59
2022-08-23T03:38:01.542Z,93.53
2022-08-23T03:40:29.085Z,93.57
2022-08-23T03:42:56.312Z,93.79
2022-08-23T03:45:25.124Z,93.57
2022-08-23T03:47:53.425Z,93.51
2022-08-23T03:50:21.207Z,93.27
2022-08-23T03:52:48.518Z,93.13
2022-08-23T03:55:16.859Z,93.22
2022-08-23T03:57:45.951Z,93.48
2022-08-23T04:00:20.406Z,92.92
2022-08-23T04:02:49.635Z,92.96
2022-08-23T04:05:17.649Z,92.28
2022-08-23T04:07:50.973Z,92.22
2022-08-23T04:10:20.596Z,92.23
2022-08-23T04:12:50.156Z,92.45
2022-08-23T04:15:19.117Z,92.34
2022-08-23T04:17:47.956Z,92.37
2022-08-23T04:20:17.601Z,92.11
2022-08-23T04:23:04.666Z,92.00
2022-08-23T04:25:45.229Z,91.80
2022-08-23T04:28:12.580Z,91.59
2022-08-23T04:30:39.889Z,91.54
2022-08-23T04:33:11.245Z,91.64
2022-08-23T04:35:41.079Z,91.44
2022-08-23T04:38:24.066Z,91.29
2022-08-23T04:41:13.384Z,90.87
2022-08-23T04:43:43.471Z,90.19
2022-08-23T04:46:16.628Z,89.79
2022-08-23T04:48:46.465Z,89.51
2022-08-23T04:51:16.237Z,89.52
2022-08-23T04:53:47.464Z,89.76
2022-08-23T04:56:34.295Z,89.87
2022-08-23T04:59:02.590Z,89.27
2022-08-23T05:01:30.284Z,89.11
2022-08-23T05:03:57.627Z,88.99
2022-08-23T05:06:27.404Z,88.54
2022-08-23T05:08:55.105Z,88.74
2022-08-23T05:11:23.386Z,88.65
2022-08-23T05:13:51.134Z,88.66
2022-08-23T05:16:21.925Z,88.35
2022-08-23T05:18:56.932Z,88.50
2022-08-23T05:21:25.146Z,88.21
2022-08-23T05:23:54.844Z,87.79
2022-08-23T05:26:23.966Z,87.53
2022-08-23T05:28:51.252Z,87.46
2022-08-23T05:31:24.351Z,86.53
2022-08-23T05:33:56.969Z,85.82
2022-08-23T05:36:29.921Z,85.58
2022-08-23T05:38:57.172Z,86.04
2022-08-23T05:41:38.447Z,85.47
2022-08-23T05:44:10.140Z,85.26
2022-08-23T05:46:41.747Z,84.92
2022-08-23T05:49:36.075Z,83.99
2022-08-23T05:52:11.283Z,82.61
2022-08-23T05:54:38.950Z,82.97
2022-08-23T05:57:59.855Z,82.61
2022-08-23T06:00:37.845Z,82.68
2022-08-23T06:03:06.684Z,82.14
2022-08-23T06:05:38.466Z,82.62
2022-08-23T06:08:05.735Z,81.19
2022-08-23T06:10:39.368Z,81.43
2022-08-23T06:13:43.035Z,81.48
2022-08-23T06:16:14.842Z,81.39
2022-08-23T06:18:44.948Z,81.02
2022-08-23T06:21:34.050Z,81.52
2022-08-23T06:24:02.611Z,81.25
2022-08-23T06:26:37.748Z,80.73
2022-08-23T06:29:10.001Z,80.11
2022-08-23T06:31:49.678Z,79.31
2022-08-23T06:34:33.296Z,79.84
2022-08-23T06:37:20.269Z,79.00
2022-08-23T06:40:41.310Z,78.85
2022-08-23T06:43:55.252Z,77.73
2022-08-23T06:46:33.787Z,77.24
2022-08-23T06:49:04.627Z,76.44
2022-08-23T06:51:40.035Z,77.02
2022-08-23T06:54:26.778Z,76.56
2022-08-23T06:56:58.465Z,76.28
2022-08-23T06:59:30.692Z,76.15
2022-08-23T07:02:50.629Z,75.88
2022-08-23T07:06:05.084Z,75.93
2022-08-23T07:08:35.201Z,75.90
2022-08-23T07:11:02.568Z,75.72
2022-08-23T07:13:29.837Z,75.23
2022-08-23T07:15:59.977Z,75.17
2022-08-23T07:18:27.786Z,74.75
2022-08-23T07:21:00.627Z,74.25
2022-08-23T07:23:39.268Z,74.28
2022-08-23T07:26:11.883Z,74.14
2022-08-23T07:28:41.122Z,73.88
2022-08-23T07:31:11.478Z,73.79
2022-08-23T07:33:44.689Z,73.80
2022-08-23T07:36:22.476Z,72.77
2022-08-23T07:38:51.635Z,72.73
2022-08-23T07:41:20.506Z,72.19
2022-08-23T07:43:48.503Z,71.66
2022-08-23T07:46:16.064Z,70.91
2022-08-23T07:48:53.865Z,71.05
2022-08-23T07:51:34.912Z,70.79
2022-08-23T07:54:06.422Z,70.39
2022-08-23T07:56:37.218Z,70.41
2022-08-23T07:59:20.737Z,70.95
2022-08-23T08:02:03.752Z,69.94
2022-08-23T08:04:31.537Z,68.82
2022-08-23T08:07:18.235Z,68.59
2022-08-23T08:09:49.451Z,69.44
2022-08-23T08:12:17.651Z,69.08
2022-08-23T08:14:50.487Z,68.19
2022-08-23T08:17:19.089Z,67.56
2022-08-23T08:20:09.852Z,67.64
2022-08-23T08:23:00.230Z,66.97
2022-08-23T08:25:46.354Z,67.10
2022-08-23T08:28:16.063Z,66.83
2022-08-23T08:30:43.701Z,66.95
2022-08-23T08:33:11.012Z,66.55
2022-08-23T08:35:38.562Z,65.29
2022-08-23T08:38:06.015Z,64.20
2022-08-23T08:40:39.731Z,62.99
2022-08-23T08:44:01.786Z,63.44
2022-08-23T08:46:45.638Z,63.18
2022-08-23T08:49:57.978Z,62.59
2022-08-23T08:52:49.141Z,63.21
2022-08-23T08:55:42.731Z,63.48
2022-08-23T08:58:18.942Z,63.32
2022-08-23T09:00:46.747Z,63.81
2022-08-23T09:03:21.704Z,62.95
2022-08-23T09:06:25.189Z,62.61
2022-08-23T09:10:06.638Z,61.93
2022-08-23T09:12:43.135Z,61.45
2022-08-23T09:15:41.441Z,61.56
2022-08-23T09:18:13.525Z,62.50
2022-08-23T09:20:43.139Z,61.34
2022-08-23T09:23:26.983Z,61.87
2022-08-23T09:26:03.765Z,61.81
2022-08-23T09:28:37.204Z,62.15
2022-08-23T09:31:08.227Z,62.18
2022-08-23T09:33:47.530Z,61.79
2022-08-23T09:36:41.416Z,60.60
2022-08-23T09:39:31.386Z,60.48
2022-08-23T09:42:04.745Z,60.70
2022-08-23T09:44:40.465Z,60.93
2022-08-23T09:47:15.280Z,60.99
2022-08-23T09:49:51.968Z,60.57
2022-08-23T09:52:37.155Z,60.21
2022-08-23T09:55:10.580Z,58.50
2022-08-23T09:57:47.602Z,58.50
2022-08-23T10:00:17.251Z,57.46
2022-08-23T10:02:46.422Z,57.51
2022-08-23T10:05:40.093Z,55.75
2022-08-23T10:08:22.890Z,55.69
2022-08-23T10:10:58.358Z,54.80
2022-08-23T10:13:31.817Z,55.39
2022-08-23T10:16:39.721Z,55.03
2022-08-23T10:19:38.446Z,55.59
2022-08-23T10:22:23.601Z,55.18
2022-08-23T10:25:36.902Z,56.34
2022-08-23T10:29:22.936Z,55.74
2022-08-23T10:32:21.584Z,55.56
2022-08-23T10:35:03.357Z,56.29
2022-08-23T10:37:43.527Z,53.62
2022-08-23T10:40:32.287Z,54.13
2022-08-23T10:43:25.297Z,54.37
2022-08-23T10:46:00.383Z,54.09
2022-08-23T10:49:00.411Z,54.20
2022-08-23T10:51:40.573Z,53.96
2022-08-23T10:54:46.175Z,52.99
2022-08-23T10:57:20.073Z,52.73
2022-08-23T10:59:50.631Z,51.47
2022-08-23T11:03:07.276Z,52.23
2022-08-23T11:05:38.691Z,51.64
2022-08-23T11:08:33.144Z,51.91
2022-08-23T11:11:02.725Z,52.02
2022-08-23T11:13:34.738Z,51.81
2022-08-23T11:16:15.240Z,51.46
2022-08-23T11:18:47.212Z,50.68
2022-08-23T11:21:17.492Z,50.65
2022-08-23T11:24:32.591Z,50.20
2022-08-23T11:27:06.633Z,49.98
2022-08-23T11:29:40.240Z,50.02
2022-08-23T11:32:42.337Z,49.53
2022-08-23T11:35:37.315Z,50.04
2022-08-23T11:38:11.623Z,50.56
2022-08-23T11:40:50.295Z,49.79
2022-08-23T11:43:41.456Z,50.04
2022-08-23T11:46:26.739Z,49.95
2022-08-23T11:49:39.473Z,49.04
2022-08-23T11:52:27.873Z,48.82
2022-08-23T11:55:20.756Z,48.71
2022-08-23T11:57:56.896Z,46.94
2022-08-23T12:01:06.812Z,47.17
2022-08-23T12:03:59.565Z,48.01
2022-08-23T12:06:41.747Z,46.90
2022-08-23T12:09:24.105Z,46.69
2022-08-23T12:11:57.312Z,46.09
2022-08-23T12:14:42.543Z,45.71
2022-08-23T12:17:12.571Z,45.08
2022-08-23T12:20:16.084Z,45.20
2022-08-23T12:23:01.919Z,45.50
2022-08-23T12:25:31.528Z,45.65
2022-08-23T12:28:30.943Z,45.87
2022-08-23T12:31:13.605Z,45.99
2022-08-23T12:33:57.330Z,46.17
2022-08-23T12:36:50.679Z,46.05
2022-08-23T12:39:38.994Z,46.01
2022-08-23T12:42:15.654Z,45.18
2022-08-23T12:45:11.625Z,44.97
2022-08-23T12:47:43.205Z,44.67
2022-08-23T12:50:13.278Z,44.80
2022-08-23T12:52:41.302Z,44.37
2022-08-23T12:55:48.153Z,44.48
2022-08-23T12:58:33.712Z,44.31
2022-08-23T13:01:22.296Z,44.34
2022-08-23T13:04:05.769Z,44.19
2022-08-23T13:06:45.569Z,43.69
2022-08-23T13:09:22.483Z,43.37
2022-08-23T13:12:14.233Z,43.25
2022-08-23T13:14:53.635Z,43.87
2022-08-23T13:17:30.395Z,43.95
2022-08-23T13:20:09.823Z,44.10
2022-08-23T13:22:39.317Z,44.07
2022-08-23T13:25:48.934Z,44.04
2022-08-23T13:28:28.697Z,43.97
2022-08-23T13:31:08.385Z,43.95
2022-08-23T13:33:36.907Z,44.66
2022-08-23T13:36:21.439Z,44.26
2022-08-23T13:38:49.536Z,43.47
2022-08-23T13:41:43.360Z,43.85
2022-08-23T13:44:18.410Z,44.15
2022-08-23T13:46:48.596Z,44.71
2022-08-23T13:49:27.811Z,45.08
2022-08-23T13:52:17.202Z,44.96
2022-08-23T13:54:58.247Z,44.72
2022-08-23T13:57:50.815Z,44.10
2022-08-23T14:00:58.590Z,44.23
2022-08-23T14:03:33.815Z,44.04
2022-08-23T14:06:11.094Z,44.42
2022-08-23T14:08:38.281Z,44.42
2022-08-23T14:11:08.560Z,43.89
2022-08-23T14:13:36.932Z,43.76
2022-08-23T14:23:11.415Z,43.10
2022-08-23T14:25:45.707Z,43.25
2022-08-23T14:28:13.117Z,42.95
2022-08-23T14:30:56.124Z,43.23
2022-08-23T14:33:31.401Z,43.42
2022-08-23T14:36:26.552Z,43.13
2022-08-23T14:39:07.675Z,43.03
2022-08-23T14:41:35.153Z,43.28
2022-08-23T14:44:36.017Z,43.80
2022-08-23T14:47:10.062Z,44.46
2022-08-23T14:49:49.021Z,44.73
2022-08-23T14:52:26.819Z,45.16
2022-08-23T14:55:13.159Z,44.96
2022-08-23T14:57:55.897Z,45.06
2022-08-23T15:00:26.766Z,45.62
2022-08-23T15:03:23.719Z,45.18
2022-08-23T15:05:51.107Z,44.52
2022-08-23T15:08:50.183Z,44.47
2022-08-23T15:14:30.631Z,42.16
2022-08-23T15:17:03.263Z,41.96
2022-08-23T15:19:40.865Z,42.23
2022-08-23T15:22:34.085Z,42.50
2022-08-23T15:25:18.982Z,42.62
2022-08-23T15:28:12.861Z,41.38
2022-08-23T15:30:52.764Z,40.33
2022-08-23T15:33:26.993Z,40.37
2022-08-23T15:36:19.850Z,40.67
2022-08-23T15:38:58.003Z,40.91
2022-08-23T15:41:33.344Z,41.01
2022-08-23T15:44:31.935Z,41.29
2022-08-23T15:47:28.383Z,41.00
2022-08-23T15:50:19.364Z,40.51
2022-08-23T15:53:01.334Z,41.02
2022-08-23T15:55:37.677Z,40.90
2022-08-23T15:58:27.622Z,40.94
2022-08-23T16:01:27.809Z,40.87
2022-08-23T16:04:15.015Z,41.04
2022-08-23T16:06:47.493Z,40.99
2022-08-23T16:09:48.231Z,41.34
2022-08-23T16:12:27.317Z,41.71
2022-08-23T16:14:55.011Z,41.79
2022-08-23T16:17:30.844Z,42.05
2022-08-23T16:20:04.707Z,42.55
2022-08-23T16:23:13.636Z,42.69
2022-08-23T16:26:01.166Z,43.05
2022-08-23T16:28:35.232Z,43.04
2022-08-23T16:31:38.915Z,43.33
2022-08-23T16:35:02.691Z,43.59
2022-08-23T16:37:49.768Z,43.66
2022-08-23T16:40:17.621Z,44.10
2022-08-23T16:42:44.838Z,44.45
2022-08-23T16:45:12.744Z,44.71
2022-08-23T16:47:43.742Z,45.02
2022-08-23T16:50:13.517Z,45.23
2022-08-23T16:52:41.233Z,45.47
2022-08-23T16:55:11.182Z,45.72
2022-08-23T16:57:39.775Z,45.91
2022-08-23T17:00:12.773Z,46.16
2022-08-23T17:02:41.490Z,46.38
2022-08-23T17:05:13.191Z,46.61
2022-08-23T17:07:40.924Z,47.22
2022-08-23T17:10:11.787Z,47.81
2022-08-23T17:12:45.312Z,47.96
2022-08-23T17:15:30.170Z,48.13
2022-08-23T17:18:00.846Z,48.51
2022-08-23T17:20:31.749Z,48.88
2022-08-23T17:22:59.163Z,49.75
2022-08-23T17:25:26.806Z,50.05
2022-08-23T17:27:55.942Z,49.61
2022-08-23T17:30:25.403Z,49.66
2022-08-23T17:33:08.960Z,49.81
2022-08-23T17:35:59.963Z,49.89
2022-08-23T17:38:46.396Z,50.36
2022-08-23T17:41:27.941Z,50.44
2022-08-23T17:44:13.950Z,51.55
2022-08-23T17:46:56.259Z,52.17
2022-08-23T17:49:24.688Z,52.56
2022-08-23T17:52:48.601Z,53.13
2022-08-23T17:55:19.978Z,54.46
2022-08-23T17:57:48.747Z,55.40
2022-08-23T18:00:18.951Z,54.26
2022-08-23T18:02:47.089Z,53.91
2022-08-23T18:05:15.292Z,54.14
2022-08-23T18:07:42.594Z,54.81
2022-08-23T18:10:11.975Z,54.63
2022-08-23T18:12:40.216Z,54.75
2022-08-23T18:15:08.618Z,54.32
2022-08-23T18:17:38.337Z,54.93
2022-08-23T18:20:12.630Z,56.64
2022-08-23T18:22:43.886Z,56.12
2022-08-23T18:25:14.668Z,55.77
2022-08-23T18:28:06.131Z,55.88
2022-08-23T18:30:44.142Z,56.08
2022-08-23T18:33:13.429Z,57.03
2022-08-23T18:35:42.221Z,57.01
2022-08-23T18:38:14.311Z,58.04
2022-08-23T18:40:46.818Z,58.82
2022-08-23T18:43:16.710Z,59.00
2022-08-23T18:45:47.124Z,59.10
2022-08-23T18:48:15.039Z,58.17
2022-08-23T18:50:43.451Z,59.39
2022-08-23T18:53:12.275Z,60.02
2022-08-23T18:55:41.712Z,58.61
2022-08-23T18:58:09.025Z,58.59
2022-08-23T19:00:38.275Z,59.03
2022-08-23T19:03:07.286Z,58.95
2022-08-23T19:05:42.058Z,59.13
2022-08-23T19:08:12.694Z,59.37
2022-08-23T19:10:43.831Z,59.51
2022-08-23T19:13:14.816Z,59.89
2022-08-23T19:15:42.181Z,60.29
2022-08-23T19:18:10.386Z,59.91
2022-08-23T19:20:38.366Z,60.16
2022-08-23T19:23:06.027Z,60.20
2022-08-23T19:25:36.603Z,60.09
2022-08-23T19:28:05.178Z,60.38
2022-08-23T19:30:32.527Z,60.27
2022-08-23T19:33:00.530Z,60.40
2022-08-23T19:35:29.826Z,60.24
2022-08-23T19:37:58.049Z,60.80
2022-08-23T19:40:25.601Z,60.68
2022-08-23T19:42:52.978Z,60.62
2022-08-23T19:45:21.495Z,60.32
2022-08-23T19:47:48.809Z,60.07
2022-08-23T19:50:16.428Z,59.94
2022-08-23T19:52:52.903Z,59.71
2022-08-23T19:55:21.094Z,59.58
2022-08-23T19:57:48.446Z,59.54
2022-08-23T20:00:19.374Z,59.78
2022-08-23T20:02:47.869Z,60.02
2022-08-23T20:05:16.517Z,59.49
2022-08-23T20:07:47.667Z,59.80
2022-08-23T20:10:15.818Z,60.25
2022-08-23T20:12:43.219Z,60.06
2022-08-23T20:15:12.920Z,60.15
2022-08-23T20:17:40.777Z,59.80
2022-08-23T20:20:10.643Z,59.37
2022-08-23T20:23:21.625Z,59.29
2022-08-23T20:25:50.369Z,59.00
2022-08-23T20:28:18.068Z,58.59
2022-08-23T20:30:48.076Z,58.38
2022-08-23T20:33:15.608Z,58.42
2022-08-23T20:35:46.009Z,58.02
2022-08-23T20:38:33.211Z,57.85
2022-08-23T20:41:00.691Z,57.51
2022-08-23T20:43:32.381Z,57.01
2022-08-23T20:45:59.966Z,56.39
2022-08-23T20:48:28.694Z,55.84
2022-08-23T20:51:02.365Z,55.79
2022-08-23T20:53:29.873Z,55.69
2022-08-23T20:55:59.213Z,55.20
2022-08-23T20:58:28.269Z,55.11
2022-08-23T21:00:55.614Z,55.16
2022-08-23T21:03:23.726Z,55.50
2022-08-23T21:05:50.941Z,55.56
2022-08-23T21:08:18.135Z,55.59
2022-08-23T21:10:45.416Z,55.75
2022-08-23T21:13:12.657Z,56.03
2022-08-23T21:15:39.849Z,56.18
2022-08-23T21:18:07.163Z,56.21
2022-08-23T21:20:34.341Z,56.46
2022-08-23T21:23:01.744Z,56.20
2022-08-23T21:25:29.115Z,56.32
2022-08-23T21:27:58.867Z,56.69
2022-08-23T21:30:28.362Z,56.35
2022-08-23T21:32:55.635Z,56.40
2022-08-23T21:35:22.867Z,57.12
2022-08-23T21:37:50.061Z,57.35
2022-08-23T21:40:17.523Z,57.90
2022-08-23T21:42:47.612Z,58.22
2022-08-23T21:45:14.891Z,58.24
2022-08-23T21:47:42.234Z,59.30
2022-08-23T21:50:10.028Z,59.45
2022-08-23T21:52:37.289Z,59.09
2022-08-23T21:55:06.195Z,58.84
2022-08-23T21:57:33.666Z,59.80
2022-08-23T22:00:12.259Z,59.82
2022-08-23T22:02:40.044Z,59.50
2022-08-23T22:05:08.303Z,59.29
2022-08-23T22:07:36.262Z,59.49
2022-08-23T22:10:09.176Z,59.05
2022-08-23T22:12:38.057Z,59.05
2022-08-23T22:15:07.864Z,58.98
2022-08-23T22:17:35.214Z,58.99
2022-08-23T22:20:05.676Z,59.41
2022-08-23T22:22:34.153Z,59.03
2022-08-23T22:25:02.283Z,59.41
2022-08-23T22:27:29.585Z,59.61
2022-08-23T22:29:57.499Z,59.59
2022-08-23T22:32:25.476Z,60.44
2022-08-23T22:34:53.374Z,61.48
2022-08-23T22:37:20.602Z,62.29
2022-08-23T22:39:47.825Z,62.82
2022-08-23T22:42:15.834Z,63.41
2022-08-23T22:44:42.986Z,63.59
2022-08-23T22:47:10.194Z,63.80
2022-08-23T22:49:38.661Z,64.32
2022-08-23T22:52:06.055Z,64.60
2022-08-23T22:54:33.135Z,64.33
2022-08-23T22:57:00.452Z,64.00
2022-08-23T22:59:32.357Z,63.67
2022-08-23T23:02:03.269Z,63.41
2022-08-23T23:04:32.202Z,62.87
2022-08-23T23:06:59.995Z,62.53
2022-08-23T23:09:27.205Z,62.32
2022-08-23T23:11:54.857Z,62.04
2022-08-23T23:14:22.525Z,62.31
2022-08-23T23:16:50.532Z,63.18
2022-08-23T23:19:36.948Z,63.36
2022-08-23T23:22:06.994Z,63.70
2022-08-23T23:24:38.028Z,63.56
2022-08-23T23:27:06.660Z,63.80
2022-08-23T23:29:34.372Z,64.57
2022-08-23T23:32:01.703Z,64.28
2022-08-23T23:34:29.146Z,64.43
2022-08-23T23:36:58.431Z,64.39
2022-08-23T23:39:27.163Z,64.33
2022-08-23T23:41:54.572Z,64.79
2022-08-23T23:44:26.024Z,64.59
2022-08-23T23:47:01.138Z,64.65
2022-08-23T23:49:32.111Z,65.21
2022-08-23T23:52:02.825Z,65.18
2022-08-23T23:54:31.169Z,65.49
2022-08-23T23:56:58.526Z,65.12
2022-08-23T23:59:26.333Z,65.44
